Time;durP1;ratioP1;P1;durP2;ratioP2;P2;SDS_P1;SDS_P2;PMS_P1;PMS_P2;Temp;Humidity;BMP_temperature;BMP_pressure;BME280_temperature;BME280_humidity;BME280_pressure;Samples;Min_cycle;Max_cycle;Signal;HPM_P1;HPM_P2
2022/10/13 00:01:22;;;;;;;17.25;7.78;;;;;;;;;;5046770;28;20035;-76
2022/10/13 00:03:49;;;;;;;12.98;8.27;;;;;;;;;;5050776;28;20021;-76
2022/10/13 00:06:17;;;;;;;12.05;7.88;;;;;;;;;;5068388;28;20021;-76
2022/10/13 00:08:44;;;;;;;14.40;8.95;;;;;;;;;;5052737;28;20385;-76
2022/10/13 00:11:11;;;;;;;16.58;7.70;;;;;;;;;;5066006;28;20543;-76
2022/10/13 00:13:38;;;;;;;12.25;7.03;;;;;;;;;;5066159;28;20040;-77
2022/10/13 00:16:04;;;;;;;14.48;6.43;;;;;;;;;;5038511;28;20031;-77
2022/10/13 00:18:30;;;;;;;12.13;6.70;;;;;;;;;;5056836;28;20032;-77
2022/10/13 00:20:56;;;;;;;13.60;6.13;;;;;;;;;;5068168;28;20032;-77
2022/10/13 00:23:23;;;;;;;14.57;5.60;;;;;;;;;;5049875;28;20551;-76
2022/10/13 00:25:49;;;;;;;10.90;6.07;;;;;;;;;;5045741;28;20040;-76
2022/10/13 00:28:17;;;;;;;11.38;5.38;;;;;;;;;;5041316;28;20033;-76
2022/10/13 00:30:43;;;;;;;10.57;5.53;;;;;;;;;;5041514;28;20021;-76
2022/10/13 00:33:10;;;;;;;11.70;5.50;;;;;;;;;;5054129;28;20028;-77
2022/10/13 00:35:58;;;;;;;12.75;5.90;;;;;;;;;;5053046;28;20377;-77
2022/10/13 00:38:24;;;;;;;8.27;4.68;;;;;;;;;;5035425;28;20087;-77
2022/10/13 00:40:51;;;;;;;12.18;5.47;;;;;;;;;;5045803;28;20031;-76
2022/10/13 00:43:22;;;;;;;9.10;4.82;;;;;;;;;;5045507;28;20055;-75
2022/10/13 00:45:51;;;;;;;8.30;5.10;;;;;;;;;;5045713;28;20035;-76
2022/10/13 00:48:22;;;;;;;20.45;4.75;;;;;;;;;;5049272;28;20865;-76
2022/10/13 00:50:48;;;;;;;10.18;5.15;;;;;;;;;;5040649;28;20040;-77
2022/10/13 00:53:15;;;;;;;9.93;5.20;;;;;;;;;;5041483;28;20036;-76
2022/10/13 00:55:42;;;;;;;9.40;4.82;;;;;;;;;;5044399;28;20021;-77
2022/10/13 00:58:10;;;;;;;11.20;4.75;;;;;;;;;;5045454;28;20066;-76
2022/10/13 01:00:36;;;;;;;8.07;4.97;;;;;;;;;;5036164;28;20466;-76
2022/10/13 01:03:02;;;;;;;9.70;6.07;;;;;;;;;;5045924;28;20029;-76
2022/10/13 01:05:29;;;;;;;10.13;5.03;;;;;;;;;;5042997;28;20035;-76
2022/10/13 01:07:56;;;;;;;7.18;4.13;;;;;;;;;;5047319;28;20494;-76
2022/10/13 01:10:26;;;;;;;10.05;3.72;;;;;;;;;;5044383;28;20112;-77
2022/10/13 01:13:07;;;;;;;8.68;3.75;;;;;;;;;;5049562;28;20475;-76
2022/10/13 01:15:33;;;;;;;7.28;4.60;;;;;;;;;;5042324;28;20551;-76
2022/10/13 01:18:13;;;;;;;8.95;4.45;;;;;;;;;;5044158;28;20029;-76
2022/10/13 01:20:42;;;;;;;11.40;4.78;;;;;;;;;;5047412;28;20037;-77
2022/10/13 01:23:11;;;;;;;10.27;4.75;;;;;;;;;;5051258;28;20044;-76
2022/10/13 01:25:40;;;;;;;13.68;4.85;;;;;;;;;;5067222;28;20086;-76
2022/10/13 01:28:25;;;;;;;15.32;4.93;;;;;;;;;;5061438;28;20040;-76
2022/10/13 01:30:55;;;;;;;9.17;5.23;;;;;;;;;;5067362;28;20103;-76
2022/10/13 01:33:40;;;;;;;11.05;5.60;;;;;;;;;;5058863;28;20571;-77
2022/10/13 01:36:12;;;;;;;8.38;4.47;;;;;;;;;;5045321;28;20032;-76
2022/10/13 01:38:56;;;;;;;7.28;5.10;;;;;;;;;;5077618;28;20491;-76
2022/10/13 01:41:29;;;;;;;10.20;4.80;;;;;;;;;;5058017;28;20024;-77
2022/10/13 01:44:00;;;;;;;14.27;5.65;;;;;;;;;;5050070;28;20036;-77
2022/10/13 01:46:28;;;;;;;15.10;4.35;;;;;;;;;;5049531;28;20020;-76
2022/10/13 01:48:55;;;;;;;9.02;4.45;;;;;;;;;;5062943;28;20421;-76
2022/10/13 01:51:23;;;;;;;11.80;4.68;;;;;;;;;;5066090;28;20373;-76
2022/10/13 01:53:49;;;;;;;6.03;4.40;;;;;;;;;;5077744;28;20500;-76
2022/10/13 01:56:16;;;;;;;9.82;5.10;;;;;;;;;;5048327;28;20017;-76
2022/10/13 01:58:42;;;;;;;7.75;4.22;;;;;;;;;;5063727;28;20078;-76
2022/10/13 02:01:20;;;;;;;8.43;5.13;;;;;;;;;;5065500;28;20028;-76
2022/10/13 02:04:00;;;;;;;4.80;3.20;;;;;;;;;;5051989;28;20027;-76
2022/10/13 02:06:41;;;;;;;5.40;3.67;;;;;;;;;;5054143;28;20028;-76
2022/10/13 02:09:12;;;;;;;6.30;4.43;;;;;;;;;;5061178;28;20768;-76
2022/10/13 02:11:41;;;;;;;8.15;4.82;;;;;;;;;;5050437;28;20029;-76
2022/10/13 02:14:16;;;;;;;12.20;4.55;;;;;;;;;;5052116;28;20550;-76
2022/10/13 02:16:43;;;;;;;9.15;4.25;;;;;;;;;;5048380;28;20047;-75
2022/10/13 02:19:12;;;;;;;6.28;5.05;;;;;;;;;;5049986;28;20074;-76
2022/10/13 02:21:39;;;;;;;10.95;6.38;;;;;;;;;;5055296;28;20028;-76
2022/10/13 02:24:06;;;;;;;5.10;3.83;;;;;;;;;;5063890;28;20044;-76
2022/10/13 02:26:33;;;;;;;8.45;4.85;;;;;;;;;;5043440;28;20035;-76
2022/10/13 02:28:59;;;;;;;9.10;5.40;;;;;;;;;;5058668;28;20043;-76
2022/10/13 02:31:25;;;;;;;13.80;5.00;;;;;;;;;;5051998;28;20103;-76
2022/10/13 02:33:52;;;;;;;12.50;5.30;;;;;;;;;;5053661;28;20039;-76
2022/10/13 02:36:18;;;;;;;6.60;4.93;;;;;;;;;;5053520;28;20020;-76
2022/10/13 02:38:44;;;;;;;11.82;5.70;;;;;;;;;;5049545;28;20157;-76
2022/10/13 02:41:10;;;;;;;8.60;5.10;;;;;;;;;;5061307;28;20036;-76
2022/10/13 02:43:37;;;;;;;14.52;5.47;;;;;;;;;;5063749;28;20071;-76
2022/10/13 02:46:03;;;;;;;9.57;5.65;;;;;;;;;;5067495;28;20016;-76
2022/10/13 02:48:29;;;;;;;14.38;6.20;;;;;;;;;;5057700;28;20580;-76
2022/10/13 02:50:55;;;;;;;9.30;5.63;;;;;;;;;;5062401;28;20032;-76
2022/10/13 02:53:22;;;;;;;10.63;4.90;;;;;;;;;;5064365;28;20026;-76
2022/10/13 02:55:48;;;;;;;7.63;4.95;;;;;;;;;;5060327;28;20029;-76
2022/10/13 02:58:14;;;;;;;11.25;4.40;;;;;;;;;;5068000;28;20074;-76
2022/10/13 03:00:40;;;;;;;6.10;4.28;;;;;;;;;;5049636;28;20106;-76
2022/10/13 03:03:06;;;;;;;10.00;4.57;;;;;;;;;;5038716;28;20480;-76
2022/10/13 03:05:33;;;;;;;7.63;4.82;;;;;;;;;;5064844;28;20025;-76
2022/10/13 03:07:59;;;;;;;9.07;5.35;;;;;;;;;;5064755;28;20017;-76
2022/10/13 03:10:25;;;;;;;10.85;4.20;;;;;;;;;;5048429;28;20032;-76
2022/10/13 03:12:51;;;;;;;8.25;4.15;;;;;;;;;;5056511;28;20050;-76
2022/10/13 03:15:18;;;;;;;10.07;4.45;;;;;;;;;;5069896;28;20024;-76
2022/10/13 03:17:44;;;;;;;12.27;4.63;;;;;;;;;;5064636;28;20122;-76
2022/10/13 03:20:10;;;;;;;11.95;5.18;;;;;;;;;;5069050;28;20520;-76
2022/10/13 03:22:36;;;;;;;8.55;5.30;;;;;;;;;;5060298;28;20115;-76
2022/10/13 03:25:02;;;;;;;15.00;4.72;;;;;;;;;;5058818;28;20052;-76
2022/10/13 03:27:28;;;;;;;10.57;4.85;;;;;;;;;;5080537;28;20109;-76
2022/10/13 03:29:54;;;;;;;7.53;4.65;;;;;;;;;;5046274;28;20040;-76
2022/10/13 03:32:20;;;;;;;14.50;5.82;;;;;;;;;;5067142;28;20037;-76
2022/10/13 03:34:47;;;;;;;8.43;4.40;;;;;;;;;;5070363;28;20120;-76
2022/10/13 03:37:13;;;;;;;12.40;5.30;;;;;;;;;;5066441;28;20025;-76
2022/10/13 03:39:41;;;;;;;9.50;5.35;;;;;;;;;;5057510;28;20048;-76
2022/10/13 03:42:07;;;;;;;11.45;5.40;;;;;;;;;;5072680;28;20113;-76
2022/10/13 03:44:33;;;;;;;10.00;5.55;;;;;;;;;;5050934;28;20035;-76
2022/10/13 03:46:59;;;;;;;8.55;4.47;;;;;;;;;;5061062;28;20055;-76
2022/10/13 03:49:26;;;;;;;8.88;5.53;;;;;;;;;;5054084;28;20032;-76
2022/10/13 03:51:52;;;;;;;10.35;4.75;;;;;;;;;;5063513;28;20580;-76
2022/10/13 03:54:18;;;;;;;9.10;4.53;;;;;;;;;;5054413;28;20111;-75
2022/10/13 03:56:44;;;;;;;10.93;4.57;;;;;;;;;;5080581;28;20468;-76
2022/10/13 03:59:12;;;;;;;12.43;5.28;;;;;;;;;;5053915;28;20028;-76
2022/10/13 04:01:38;;;;;;;9.45;4.72;;;;;;;;;;5055805;28;20149;-76
2022/10/13 04:04:06;;;;;;;11.27;5.00;;;;;;;;;;5062563;28;20036;-76
2022/10/13 04:06:32;;;;;;;6.35;4.43;;;;;;;;;;5044590;28;20664;-76
2022/10/13 04:08:58;;;;;;;11.18;6.25;;;;;;;;;;5053464;28;20124;-76
2022/10/13 04:11:25;;;;;;;10.75;5.50;;;;;;;;;;5066775;28;20111;-76
2022/10/13 04:13:51;;;;;;;11.23;6.22;;;;;;;;;;5084633;28;20107;-76
2022/10/13 04:16:19;;;;;;;15.40;6.10;;;;;;;;;;5066066;28;20432;-75
2022/10/13 04:18:50;;;;;;;13.00;7.03;;;;;;;;;;5062318;28;20056;-76
2022/10/13 04:21:16;;;;;;;12.32;5.60;;;;;;;;;;5063667;28;20107;-76
2022/10/13 04:23:42;;;;;;;12.52;5.93;;;;;;;;;;5073076;28;20071;-76
2022/10/13 04:26:14;;;;;;;15.30;6.03;;;;;;;;;;5064006;28;20499;-77
2022/10/13 04:28:40;;;;;;;15.00;7.63;;;;;;;;;;5054926;28;20037;-76
2022/10/13 04:31:06;;;;;;;13.80;6.32;;;;;;;;;;5066813;28;20040;-76
2022/10/13 04:33:32;;;;;;;8.88;5.93;;;;;;;;;;5053879;28;20016;-76
2022/10/13 04:35:58;;;;;;;10.73;6.18;;;;;;;;;;5072018;28;20024;-76
2022/10/13 04:38:24;;;;;;;10.88;6.90;;;;;;;;;;5051211;28;20064;-76
2022/10/13 04:40:50;;;;;;;13.55;7.10;;;;;;;;;;5063356;28;20097;-76
2022/10/13 04:43:17;;;;;;;10.60;6.82;;;;;;;;;;5057379;28;20401;-76
2022/10/13 04:45:43;;;;;;;14.65;6.80;;;;;;;;;;5066527;28;20103;-76
2022/10/13 04:48:09;;;;;;;13.32;7.07;;;;;;;;;;5045829;28;20509;-76
2022/10/13 04:50:35;;;;;;;13.38;7.00;;;;;;;;;;5060999;28;20083;-76
2022/10/13 04:53:01;;;;;;;10.82;6.18;;;;;;;;;;5063842;28;20068;-76
2022/10/13 04:55:27;;;;;;;13.95;6.72;;;;;;;;;;5067787;28;20443;-76
2022/10/13 04:57:53;;;;;;;12.23;6.22;;;;;;;;;;5069831;28;20485;-75
2022/10/13 05:00:19;;;;;;;11.25;7.47;;;;;;;;;;5054550;28;20041;-76
2022/10/13 05:02:46;;;;;;;13.50;7.20;;;;;;;;;;5050890;28;20021;-76
2022/10/13 05:05:12;;;;;;;14.27;6.40;;;;;;;;;;5063285;28;20036;-76
2022/10/13 05:07:38;;;;;;;13.02;6.40;;;;;;;;;;5043079;28;20035;-76
2022/10/13 05:10:04;;;;;;;13.93;5.60;;;;;;;;;;5064288;28;20028;-77
2022/10/13 05:12:30;;;;;;;8.18;5.70;;;;;;;;;;5049774;28;20033;-77
2022/10/13 05:14:57;;;;;;;9.18;5.32;;;;;;;;;;5059971;28;20025;-77
2022/10/13 05:17:23;;;;;;;11.23;5.47;;;;;;;;;;5068250;28;20024;-76
2022/10/13 05:19:50;;;;;;;10.90;5.80;;;;;;;;;;5060378;28;20028;-76
2022/10/13 05:22:16;;;;;;;7.00;4.82;;;;;;;;;;5063104;28;20028;-76
2022/10/13 05:24:42;;;;;;;8.13;5.18;;;;;;;;;;5048058;28;20053;-76
2022/10/13 05:27:10;;;;;;;8.90;4.88;;;;;;;;;;5047681;28;20743;-77
2022/10/13 05:29:36;;;;;;;9.32;5.30;;;;;;;;;;5045921;28;20473;-77
2022/10/13 05:32:02;;;;;;;8.30;5.05;;;;;;;;;;5038274;28;20029;-77
2022/10/13 05:34:29;;;;;;;8.50;5.72;;;;;;;;;;5046326;28;20021;-76
2022/10/13 05:36:55;;;;;;;7.80;4.95;;;;;;;;;;5042418;28;20025;-76
2022/10/13 05:39:21;;;;;;;7.28;4.50;;;;;;;;;;5046435;28;20031;-76
2022/10/13 05:41:47;;;;;;;5.78;4.63;;;;;;;;;;5040268;28;20079;-75
2022/10/13 05:44:16;;;;;;;7.15;4.53;;;;;;;;;;5048950;28;20555;-77
2022/10/13 05:46:42;;;;;;;6.70;5.03;;;;;;;;;;5048863;28;20025;-76
2022/10/13 05:49:09;;;;;;;5.60;4.05;;;;;;;;;;5046106;28;20033;-77
2022/10/13 05:51:40;;;;;;;6.82;4.65;;;;;;;;;;5043268;28;20799;-77
2022/10/13 05:54:06;;;;;;;6.72;4.30;;;;;;;;;;5050126;28;20116;-77
2022/10/13 05:56:35;;;;;;;6.50;4.80;;;;;;;;;;5042154;28;20070;-77
2022/10/13 05:59:03;;;;;;;5.75;4.68;;;;;;;;;;5046765;28;20025;-77
2022/10/13 06:01:33;;;;;;;5.93;4.40;;;;;;;;;;5044035;28;20488;-76
2022/10/13 06:04:02;;;;;;;5.90;4.60;;;;;;;;;;5050648;28;20091;-76
2022/10/13 06:06:28;;;;;;;7.93;5.40;;;;;;;;;;5043855;28;20037;-76
2022/10/13 06:08:54;;;;;;;6.88;5.28;;;;;;;;;;5047114;28;20471;-77
2022/10/13 06:11:20;;;;;;;10.30;5.38;;;;;;;;;;5047961;28;20408;-77
2022/10/13 06:13:46;;;;;;;8.65;5.20;;;;;;;;;;5049106;28;20073;-77
2022/10/13 06:16:12;;;;;;;7.78;5.72;;;;;;;;;;5049290;28;20107;-77
2022/10/13 06:18:39;;;;;;;10.60;5.22;;;;;;;;;;5047856;28;20028;-77
2022/10/13 06:21:05;;;;;;;7.60;5.40;;;;;;;;;;5049567;28;20044;-77
2022/10/13 06:23:31;;;;;;;11.88;6.20;;;;;;;;;;5046760;28;20041;-79
2022/10/13 06:25:57;;;;;;;12.18;6.63;;;;;;;;;;5051427;28;20036;-76
2022/10/13 06:28:23;;;;;;;7.03;5.07;;;;;;;;;;5050716;28;20523;-78
2022/10/13 06:30:54;;;;;;;11.82;6.20;;;;;;;;;;5068670;28;20362;-77
2022/10/13 06:33:21;;;;;;;8.18;5.90;;;;;;;;;;5054794;28;20576;-77
2022/10/13 06:35:47;;;;;;;8.82;5.22;;;;;;;;;;5056557;28;20025;-77
2022/10/13 06:38:13;;;;;;;10.10;6.60;;;;;;;;;;5066543;28;20024;-77
2022/10/13 06:40:41;;;;;;;8.75;5.80;;;;;;;;;;5069256;28;20115;-77
2022/10/13 06:43:07;;;;;;;9.80;5.95;;;;;;;;;;5051704;28;20029;-77
2022/10/13 06:45:33;;;;;;;10.25;6.10;;;;;;;;;;5061920;28;20053;-77
2022/10/13 06:47:59;;;;;;;9.57;5.30;;;;;;;;;;5050076;28;20031;-77
2022/10/13 06:50:25;;;;;;;10.50;5.65;;;;;;;;;;5050618;28;20070;-77
2022/10/13 06:52:52;;;;;;;7.05;5.10;;;;;;;;;;5049107;28;20032;-77
2022/10/13 06:55:18;;;;;;;10.18;6.00;;;;;;;;;;5045631;28;20060;-77
2022/10/13 06:57:44;;;;;;;9.70;4.78;;;;;;;;;;5071564;28;20034;-77
2022/10/13 07:00:10;;;;;;;7.32;5.07;;;;;;;;;;5066897;28;20060;-77
2022/10/13 07:02:36;;;;;;;8.10;4.97;;;;;;;;;;5057859;28;20080;-77
2022/10/13 07:05:02;;;;;;;8.98;5.10;;;;;;;;;;5073528;28;20082;-77
2022/10/13 07:07:29;;;;;;;8.38;5.38;;;;;;;;;;5071241;28;20060;-77
2022/10/13 07:09:55;;;;;;;7.55;5.95;;;;;;;;;;5049848;28;20481;-78
2022/10/13 07:12:21;;;;;;;10.93;6.47;;;;;;;;;;5087269;28;20035;-77
2022/10/13 07:14:47;;;;;;;9.55;5.40;;;;;;;;;;5069584;28;20017;-76
2022/10/13 07:17:13;;;;;;;7.93;6.20;;;;;;;;;;5054222;28;20021;-77
2022/10/13 07:19:40;;;;;;;9.52;6.35;;;;;;;;;;5052945;28;20055;-77
2022/10/13 07:22:06;;;;;;;9.45;6.10;;;;;;;;;;5052043;28;20024;-78
2022/10/13 07:24:32;;;;;;;8.68;5.78;;;;;;;;;;5054904;28;20455;-77
2022/10/13 07:26:58;;;;;;;8.35;4.97;;;;;;;;;;5071311;28;20060;-77
2022/10/13 07:29:25;;;;;;;7.25;5.72;;;;;;;;;;5053219;28;20024;-76
2022/10/13 07:31:51;;;;;;;7.82;5.60;;;;;;;;;;5073499;28;20583;-77
2022/10/13 07:34:17;;;;;;;8.80;5.65;;;;;;;;;;5059619;28;20032;-77
2022/10/13 07:36:43;;;;;;;6.40;5.10;;;;;;;;;;5055252;28;20028;-77
2022/10/13 07:39:09;;;;;;;12.30;5.18;;;;;;;;;;5067936;28;20115;-77
2022/10/13 07:41:36;;;;;;;9.25;5.65;;;;;;;;;;5056876;28;20037;-77
2022/10/13 07:44:02;;;;;;;11.27;5.18;;;;;;;;;;5071994;28;20029;-77
2022/10/13 07:46:28;;;;;;;5.28;4.63;;;;;;;;;;5066666;28;20029;-77
2022/10/13 07:48:54;;;;;;;6.53;4.78;;;;;;;;;;5066982;28;20036;-77
2022/10/13 07:51:21;;;;;;;9.20;5.00;;;;;;;;;;5051002;28;20091;-77
2022/10/13 07:53:47;;;;;;;7.40;4.50;;;;;;;;;;5069232;28;20362;-76
2022/10/13 07:56:14;;;;;;;6.93;4.90;;;;;;;;;;5051701;28;20020;-77
2022/10/13 07:58:42;;;;;;;9.40;4.85;;;;;;;;;;5064469;28;20032;-76
2022/10/13 08:01:08;;;;;;;8.95;5.18;;;;;;;;;;5072847;28;20140;-77
2022/10/13 08:03:34;;;;;;;8.20;5.60;;;;;;;;;;5053352;28;20021;-77
2022/10/13 08:06:02;;;;;;;8.73;6.10;;;;;;;;;;5063701;28;20025;-77
2022/10/13 08:08:28;;;;;;;12.55;5.53;;;;;;;;;;5061673;28;20052;-77
2022/10/13 08:10:55;;;;;;;7.78;5.20;;;;;;;;;;5066450;28;20028;-78
2022/10/13 08:13:22;;;;;;;8.25;6.45;;;;;;;;;;5061077;28;20032;-78
2022/10/13 08:15:48;;;;;;;17.08;6.60;;;;;;;;;;5069924;28;20020;-76
2022/10/13 08:18:14;;;;;;;9.90;5.55;;;;;;;;;;5069130;28;20044;-77
2022/10/13 08:20:41;;;;;;;10.23;5.47;;;;;;;;;;5060686;28;20035;-76
2022/10/13 08:23:08;;;;;;;12.43;6.28;;;;;;;;;;5047093;28;20060;-78
2022/10/13 08:25:37;;;;;;;11.15;6.45;;;;;;;;;;5056061;28;20039;-77
2022/10/13 08:28:04;;;;;;;8.88;5.50;;;;;;;;;;5069378;28;20085;-77
2022/10/13 08:30:30;;;;;;;11.73;5.53;;;;;;;;;;5067572;28;20128;-76
2022/10/13 08:32:56;;;;;;;7.97;5.20;;;;;;;;;;5057381;28;20060;-77
2022/10/13 08:35:23;;;;;;;9.60;5.70;;;;;;;;;;5053643;28;20046;-77
2022/10/13 08:37:49;;;;;;;10.82;5.07;;;;;;;;;;5077255;28;20028;-77
2022/10/13 08:40:16;;;;;;;8.30;4.30;;;;;;;;;;5066217;28;20468;-77
2022/10/13 08:42:43;;;;;;;8.48;4.57;;;;;;;;;;5053363;28;20082;-78
2022/10/13 08:45:15;;;;;;;9.55;4.82;;;;;;;;;;5072041;28;20036;-77
2022/10/13 08:47:44;;;;;;;7.93;4.97;;;;;;;;;;5050953;28;20036;-77
2022/10/13 08:50:12;;;;;;;7.57;4.18;;;;;;;;;;5044704;28;20035;-77
2022/10/13 08:52:47;;;;;;;7.63;4.03;;;;;;;;;;5068801;28;20040;-77
2022/10/13 08:55:25;;;;;;;7.00;4.28;;;;;;;;;;5081900;28;20068;-77
2022/10/13 08:57:51;;;;;;;6.72;4.25;;;;;;;;;;5051818;28;20985;-77
2022/10/13 09:00:18;;;;;;;9.35;5.65;;;;;;;;;;5061833;28;20098;-77
2022/10/13 09:02:44;;;;;;;10.38;5.20;;;;;;;;;;5053835;28;20029;-77
2022/10/13 09:05:14;;;;;;;10.30;5.60;;;;;;;;;;5047319;28;20035;-77
2022/10/13 09:07:40;;;;;;;7.93;4.50;;;;;;;;;;5056960;28;20127;-77
2022/10/13 09:10:07;;;;;;;9.20;4.88;;;;;;;;;;5072577;28;20036;-77
2022/10/13 09:12:33;;;;;;;11.55;5.30;;;;;;;;;;5067966;28;20033;-78
2022/10/13 09:15:06;;;;;;;5.20;3.90;;;;;;;;;;5060579;28;20025;-77
2022/10/13 09:17:33;;;;;;;10.85;4.10;;;;;;;;;;5067763;28;20661;-77
2022/10/13 09:20:02;;;;;;;9.60;3.20;;;;;;;;;;5045530;28;20020;-77
2022/10/13 09:22:32;;;;;;;9.27;4.80;;;;;;;;;;5066434;28;20074;-77
2022/10/13 09:25:10;;;;;;;8.70;3.67;;;;;;;;;;5067449;28;20037;-78
2022/10/13 09:27:56;;;;;;;5.63;3.10;;;;;;;;;;5055239;28;20021;-77
2022/10/13 09:30:47;;;;;;;9.02;4.00;;;;;;;;;;5051465;28;20051;-78
2022/10/13 09:33:15;;;;;;;9.68;4.47;;;;;;;;;;5051632;28;20028;-77
2022/10/13 09:35:45;;;;;;;14.52;4.47;;;;;;;;;;5047562;28;20013;-82
2022/10/13 09:38:19;;;;;;;8.30;3.78;;;;;;;;;;5071431;28;20056;-79
2022/10/13 09:41:02;;;;;;;7.28;3.33;;;;;;;;;;5049039;28;20024;-77
2022/10/13 09:43:34;;;;;;;6.57;3.10;;;;;;;;;;5045732;28;20020;-77
2022/10/13 09:46:01;;;;;;;11.32;4.38;;;;;;;;;;5062773;28;20036;-77
2022/10/13 09:48:29;;;;;;;9.50;4.20;;;;;;;;;;5052231;28;20029;-77
2022/10/13 09:50:56;;;;;;;8.90;4.72;;;;;;;;;;5056065;28;20032;-77
2022/10/13 09:53:29;;;;;;;8.68;3.40;;;;;;;;;;5061033;28;21115;-77
2022/10/13 09:56:09;;;;;;;7.68;3.03;;;;;;;;;;5049130;28;20025;-77
2022/10/13 09:58:38;;;;;;;6.50;2.67;;;;;;;;;;5063388;28;20028;-77
2022/10/13 10:01:04;;;;;;;9.40;3.72;;;;;;;;;;5067136;28;20099;-78
2022/10/13 10:03:36;;;;;;;7.45;3.08;;;;;;;;;;5049541;28;20028;-78
2022/10/13 10:06:05;;;;;;;6.93;2.88;;;;;;;;;;5048296;28;20043;-77
2022/10/13 10:08:50;;;;;;;9.05;3.35;;;;;;;;;;5050997;28;20139;-77
2022/10/13 10:11:22;;;;;;;7.03;3.30;;;;;;;;;;5063883;28;20055;-77
2022/10/13 10:13:48;;;;;;;7.55;3.35;;;;;;;;;;5067647;28;20397;-77
2022/10/13 10:16:19;;;;;;;9.00;3.30;;;;;;;;;;5062460;28;20485;-77
2022/10/13 10:18:50;;;;;;;10.77;3.60;;;;;;;;;;5044511;28;20044;-78
2022/10/13 10:21:16;;;;;;;6.47;3.25;;;;;;;;;;5062227;28;20024;-77
2022/10/13 10:23:55;;;;;;;9.75;2.90;;;;;;;;;;5067403;28;20056;-77
2022/10/13 10:26:40;;;;;;;6.25;2.75;;;;;;;;;;5044953;28;20029;-78
2022/10/13 10:29:13;;;;;;;12.07;3.83;;;;;;;;;;5045585;28;20025;-78
2022/10/13 10:31:50;;;;;;;5.97;3.47;;;;;;;;;;5061833;28;20037;-77
2022/10/13 10:34:20;;;;;;;7.38;4.40;;;;;;;;;;5060121;28;20026;-76
2022/10/13 10:36:53;;;;;;;9.10;3.30;;;;;;;;;;5065769;28;20428;-77
2022/10/13 10:39:42;;;;;;;10.68;3.28;;;;;;;;;;5040128;28;20047;-78
2022/10/13 10:42:24;;;;;;;9.60;3.90;;;;;;;;;;5066064;28;20091;-77
2022/10/13 10:44:52;;;;;;;13.27;3.92;;;;;;;;;;5069677;28;20056;-78
2022/10/13 10:47:22;;;;;;;10.00;3.33;;;;;;;;;;5058855;28;20056;-77
2022/10/13 10:49:49;;;;;;;15.90;4.30;;;;;;;;;;5040937;28;20028;-77
2022/10/13 10:52:29;;;;;;;10.32;3.90;;;;;;;;;;5062493;28;20642;-77
2022/10/13 10:55:01;;;;;;;9.15;4.35;;;;;;;;;;5064139;28;20033;-77
2022/10/13 10:57:32;;;;;;;15.60;4.38;;;;;;;;;;5064921;28;20028;-77
2022/10/13 11:00:04;;;;;;;14.00;5.78;;;;;;;;;;5057767;28;20063;-77
2022/10/13 11:02:37;;;;;;;15.07;3.78;;;;;;;;;;5064993;28;20029;-77
2022/10/13 11:05:03;;;;;;;13.73;3.53;;;;;;;;;;5059777;28;20041;-78
2022/10/13 11:07:29;;;;;;;11.20;3.83;;;;;;;;;;5040767;28;20020;-77
2022/10/13 11:09:56;;;;;;;7.53;3.15;;;;;;;;;;5066960;28;20040;-78
2022/10/13 11:12:22;;;;;;;11.23;4.50;;;;;;;;;;5037616;28;20034;-78
2022/10/13 11:14:54;;;;;;;11.13;3.65;;;;;;;;;;5058660;28;20028;-77
2022/10/13 11:17:31;;;;;;;10.90;3.72;;;;;;;;;;5058025;28;20032;-77
2022/10/13 11:19:58;;;;;;;13.65;3.55;;;;;;;;;;5058735;28;20488;-77
2022/10/13 11:22:30;;;;;;;8.68;3.40;;;;;;;;;;5056011;28;20115;-77
2022/10/13 11:24:58;;;;;;;12.70;3.63;;;;;;;;;;5056629;28;20048;-77
2022/10/13 11:27:27;;;;;;;13.80;4.90;;;;;;;;;;5062096;28;20039;-77
2022/10/13 11:29:55;;;;;;;4.82;2.90;;;;;;;;;;5053320;28;20032;-77
2022/10/13 11:32:29;;;;;;;6.97;3.08;;;;;;;;;;5047494;28;20021;-77
2022/10/13 11:35:04;;;;;;;7.00;3.20;;;;;;;;;;5061223;28;20146;-77
2022/10/13 11:37:31;;;;;;;10.07;4.28;;;;;;;;;;5055508;28;20533;-77
2022/10/13 11:40:16;;;;;;;10.00;3.72;;;;;;;;;;5064483;28;20055;-77
2022/10/13 11:42:51;;;;;;;9.30;3.78;;;;;;;;;;5048724;28;20044;-77
2022/10/13 11:45:17;;;;;;;;;;;;;;;;;;5064334;28;20021;-77
2022/10/13 11:48:02;;;;;;;7.88;2.88;;;;;;;;;;5049389;28;20014;-78
2022/10/13 11:50:48;;;;;;;16.95;2.97;;;;;;;;;;5062255;28;20436;-76
2022/10/13 11:53:18;;;;;;;6.88;3.83;;;;;;;;;;5047923;28;20382;-76
2022/10/13 11:55:58;;;;;;;5.40;2.47;;;;;;;;;;5046699;28;20036;-78
2022/10/13 11:58:25;;;;;;;7.28;3.58;;;;;;;;;;5064659;28;20097;-76
2022/10/13 12:00:51;;;;;;;11.60;2.80;;;;;;;;;;5068126;28;20028;-75
2022/10/13 12:03:22;;;;;;;10.50;4.55;;;;;;;;;;5046052;28;20113;-76
2022/10/13 12:05:48;;;;;;;5.22;2.95;;;;;;;;;;5066567;28;20048;-75
2022/10/13 12:08:15;;;;;;;9.45;3.25;;;;;;;;;;5052169;28;20751;-77
2022/10/13 12:10:41;;;;;;;6.97;2.70;;;;;;;;;;5041380;28;20033;-77
2022/10/13 12:13:07;;;;;;;7.50;3.30;;;;;;;;;;5051839;28;20054;-77
2022/10/13 12:15:36;;;;;;;8.25;3.40;;;;;;;;;;5056288;28;20085;-76
2022/10/13 12:18:18;;;;;;;8.05;2.95;;;;;;;;;;5048963;28;20070;-77
2022/10/13 12:20:50;;;;;;;9.10;4.38;;;;;;;;;;5053037;28;20107;-77
2022/10/13 12:23:17;;;;;;;6.57;3.00;;;;;;;;;;5060563;28;20489;-76
2022/10/13 12:25:46;;;;;;;8.90;3.08;;;;;;;;;;5062473;28;20580;-77
2022/10/13 12:28:17;;;;;;;10.20;3.95;;;;;;;;;;5049036;28;20032;-77
2022/10/13 12:30:51;;;;;;;5.63;3.05;;;;;;;;;;5066692;28;20111;-77
2022/10/13 12:33:28;;;;;;;8.70;4.35;;;;;;;;;;5070012;28;20039;-76
2022/10/13 12:35:54;;;;;;;8.45;3.00;;;;;;;;;;5052247;28;20097;-76
2022/10/13 12:38:20;;;;;;;11.90;3.08;;;;;;;;;;5064437;28;20033;-76
2022/10/13 12:40:47;;;;;;;7.55;2.80;;;;;;;;;;5057494;28;20587;-76
2022/10/13 12:43:19;;;;;;;7.22;3.10;;;;;;;;;;5057859;28;20044;-76
2022/10/13 12:45:45;;;;;;;7.63;3.15;;;;;;;;;;5056006;28;20513;-76
2022/10/13 12:48:31;;;;;;;10.68;4.20;;;;;;;;;;5062803;28;20029;-76
2022/10/13 12:51:07;;;;;;;6.70;2.60;;;;;;;;;;5050588;28;20044;-77
2022/10/13 12:53:33;;;;;;;8.40;3.00;;;;;;;;;;5050263;28;20028;-76
2022/10/13 12:56:01;;;;;;;9.73;2.83;;;;;;;;;;5054004;28;20024;-77
2022/10/13 12:58:29;;;;;;;9.07;3.15;;;;;;;;;;5060673;28;20120;-77
2022/10/13 13:01:14;;;;;;;8.07;2.47;;;;;;;;;;5058441;28;20024;-76
2022/10/13 13:03:41;;;;;;;6.70;2.70;;;;;;;;;;5050698;28;20115;-76
2022/10/13 13:06:09;;;;;;;5.75;2.45;;;;;;;;;;5055456;28;20183;-76
2022/10/13 13:08:35;;;;;;;6.43;3.10;;;;;;;;;;5059284;28;20020;-76
2022/10/13 13:11:03;;;;;;;9.00;2.60;;;;;;;;;;5052379;28;20025;-76
2022/10/13 13:13:29;;;;;;;7.43;2.55;;;;;;;;;;5064855;28;20081;-76
2022/10/13 13:16:14;;;;;;;7.25;2.80;;;;;;;;;;5063194;28;20033;-76
2022/10/13 13:18:41;;;;;;;6.28;2.72;;;;;;;;;;5042752;28;20528;-76
2022/10/13 13:21:09;;;;;;;5.55;2.38;;;;;;;;;;5059700;28;20058;-77
2022/10/13 13:23:35;;;;;;;4.80;2.40;;;;;;;;;;5050757;28;20052;-76
2022/10/13 13:26:11;;;;;;;5.57;2.40;;;;;;;;;;5035353;28;20021;-77
2022/10/13 13:28:37;;;;;;;7.00;2.53;;;;;;;;;;5046718;28;20021;-76
2022/10/13 13:31:03;;;;;;;7.65;2.70;;;;;;;;;;5042960;28;20116;-76
2022/10/13 13:33:29;;;;;;;6.28;2.53;;;;;;;;;;5055116;28;20430;-76
2022/10/13 13:35:56;;;;;;;6.45;2.55;;;;;;;;;;5049733;28;20033;-77
2022/10/13 13:38:22;;;;;;;5.47;2.40;;;;;;;;;;5040873;28;20026;-77
2022/10/13 13:40:48;;;;;;;8.68;3.25;;;;;;;;;;5038441;28;20029;-77
2022/10/13 13:43:14;;;;;;;6.88;2.75;;;;;;;;;;5043205;28;20147;-77
2022/10/13 13:45:40;;;;;;;7.50;2.95;;;;;;;;;;5044490;28;20025;-76
2022/10/13 13:48:06;;;;;;;7.57;2.63;;;;;;;;;;5048295;28;20025;-76
2022/10/13 13:50:34;;;;;;;5.63;2.33;;;;;;;;;;5047957;28;20469;-76
2022/10/13 13:53:00;;;;;;;6.18;2.47;;;;;;;;;;5045320;28;20025;-76
2022/10/13 13:55:28;;;;;;;15.07;3.03;;;;;;;;;;5044550;28;20100;-76
2022/10/13 13:57:54;;;;;;;6.68;2.33;;;;;;;;;;5039181;28;20473;-76
2022/10/13 14:00:21;;;;;;;5.05;2.47;;;;;;;;;;5047169;28;20041;-76
2022/10/13 14:02:47;;;;;;;7.60;2.70;;;;;;;;;;5056095;28;20017;-76
2022/10/13 14:05:13;;;;;;;7.70;3.67;;;;;;;;;;5048824;28;20041;-75
2022/10/13 14:07:40;;;;;;;5.60;2.97;;;;;;;;;;5042775;28;20082;-77
2022/10/13 14:10:07;;;;;;;6.93;2.95;;;;;;;;;;5044488;28;20485;-76
2022/10/13 14:12:34;;;;;;;5.93;3.00;;;;;;;;;;5044662;28;20474;-77
2022/10/13 14:15:00;;;;;;;4.10;2.58;;;;;;;;;;5047814;28;20439;-77
2022/10/13 14:17:26;;;;;;;7.82;2.60;;;;;;;;;;5044596;28;20349;-76
2022/10/13 14:19:53;;;;;;;8.05;3.50;;;;;;;;;;5044127;28;20032;-76
2022/10/13 14:22:19;;;;;;;7.03;3.28;;;;;;;;;;5054749;28;20107;-76
2022/10/13 14:24:45;;;;;;;10.60;3.85;;;;;;;;;;5046885;28;20045;-76
2022/10/13 14:27:11;;;;;;;8.85;4.65;;;;;;;;;;5047120;28;20143;-76
2022/10/13 14:29:37;;;;;;;6.35;4.55;;;;;;;;;;5047070;28;20128;-76
2022/10/13 14:32:03;;;;;;;6.03;3.85;;;;;;;;;;5047493;28;20029;-77
2022/10/13 14:34:30;;;;;;;11.98;4.85;;;;;;;;;;5041559;28;20116;-76
2022/10/13 14:36:56;;;;;;;8.45;3.25;;;;;;;;;;5037405;28;20060;-76
2022/10/13 14:39:22;;;;;;;10.32;3.22;;;;;;;;;;5038731;28;20021;-77
2022/10/13 14:41:48;;;;;;;7.35;3.30;;;;;;;;;;5036361;28;20026;-76
2022/10/13 14:44:14;;;;;;;4.28;2.72;;;;;;;;;;5042551;28;20466;-76
2022/10/13 14:46:40;;;;;;;7.60;3.15;;;;;;;;;;5040509;28;20071;-75